Dallas Love Field
KDAL : now visible

Airfield :











YOU CAN JOIN US ON...

 
LOGIN :

Register | Disclaimer

   EN    FR    IT 

 









Legend :    VFR   Marginal VFR   IFR   Intensive IFR   Very Intensive IFR
Visi :
Ceiling :
>= 8 km
>= 3000ft
5 to 8 km
1000 to 3000 ft
1500m to 5 km
500 to 1000 ft
800 to 1500m
200 to 500 ft
< 800m
< 200 ft
Symbols :   Thunderstorms  Fog  Heavy snow  Heavy precipitations  Wind > 20 kt






- Airport Elevation : 487 ft
- IATA code : DAL


KDAL - Dallas Love Field

CURRENT METAR :
  • 270353Z 33010KT 10SM FEW070 BKN110 BKN250 09/01 A3003 RMK AO2 PRESRR SLP168 T00890006 $

EXPIRED METARs :
  • 270253Z 36008G17KT 10SM SCT100 BKN250 09/01 A2996 RMK AO2 SLP146 T00940011 53022 $
  • 270153Z VRB06KT 10SM FEW090 FEW250 11/02 A2994 RMK AO2 SLP137 T01060022 $

TAF KDAL
Valid from the 27 at 03:00 until the 28 at 00:00 UTC


270307Z 2703/2724 36012KT P6SM VCSH BKN070
FM270600 35008KT P6SM BKN100
FM271100 32009KT P6SM SCT250
FM271600 34015KT P6SM FEW250
KZFW FIR / North America



MET'MAP, your aeronautical weather chart ! - Copyright ORBIFLY December 2007 - Disclaimer

ORBIFLY MET'MAP TEAM :

Programming & Development : Alexandra Zaïnal
Concept & original design : Baudouin d'Aumeries
Assistance for programming : Marc-Olivier Méhu
Technical & hardware support : Manuel Goepfert

Contact : metmap@orbifly.com




SOURCES & CREDITS :

   NOAA       Earth
Advisory